Time;durP1;ratioP1;P1;durP2;ratioP2;P2;SDS_P1;SDS_P2;PMS_P1;PMS_P2;Temp;Humidity;BMP_temperature;BMP_pressure;BME280_temperature;BME280_humidity;BME280_pressure;Samples;Min_cycle;Max_cycle;Signal;HPM_P1;HPM_P2
2024/02/21 00:00:48;;;;;;;100.65;67.45;;;18.50;74.40;;;;;;5039062;28;20056;-66
2024/02/21 00:03:13;;;;;;;100.68;67.63;;;18.50;74.40;;;;;;5041210;28;20428;-67
2024/02/21 00:05:39;;;;;;;105.80;69.30;;;18.50;74.50;;;;;;5042638;28;20025;-66
2024/02/21 00:08:05;;;;;;;106.60;71.90;;;18.50;74.60;;;;;;5040072;28;20500;-67
2024/02/21 00:10:34;;;;;;;106.60;70.40;;;18.50;74.50;;;;;;5038489;28;20025;-65
2024/02/21 00:13:00;;;;;;;108.60;71.32;;;18.50;74.70;;;;;;5039285;28;20426;-68
2024/02/21 00:15:26;;;;;;;107.50;69.72;;;18.50;74.50;;;;;;5040758;28;20055;-68
2024/02/21 00:17:52;;;;;;;96.93;67.10;;;18.60;74.70;;;;;;5041764;28;20024;-66
2024/02/21 00:20:17;;;;;;;105.15;72.03;;;18.50;74.50;;;;;;5038576;28;20485;-69
2024/02/21 00:22:44;;;;;;;102.20;67.90;;;18.50;74.80;;;;;;5038486;28;20072;-66
2024/02/21 00:25:09;;;;;;;104.57;68.93;;;18.50;74.80;;;;;;5038635;28;20536;-67
2024/02/21 00:27:35;;;;;;;99.70;67.85;;;18.50;74.90;;;;;;5036520;28;20051;-67
2024/02/21 00:30:01;;;;;;;99.85;66.22;;;18.50;75.10;;;;;;5040210;28;20040;-69
2024/02/21 00:32:26;;;;;;;98.47;66.22;;;18.50;75.10;;;;;;5038340;28;20049;-69
2024/02/21 00:34:52;;;;;;;98.90;67.35;;;18.50;75.30;;;;;;5038350;28;20191;-69
2024/02/21 00:37:18;;;;;;;98.63;65.97;;;18.50;75.30;;;;;;5041300;28;20017;-70
2024/02/21 00:39:43;;;;;;;97.72;64.70;;;18.50;75.30;;;;;;5041692;28;20047;-67
2024/02/21 00:42:09;;;;;;;97.05;65.30;;;18.50;75.20;;;;;;5038765;28;20069;-67
2024/02/21 00:44:34;;;;;;;98.65;66.30;;;18.50;75.30;;;;;;5038389;28;20105;-68
2024/02/21 00:47:00;;;;;;;92.60;62.85;;;18.50;75.40;;;;;;5038536;28;20049;-67
2024/02/21 00:49:25;;;;;;;97.35;66.25;;;18.50;75.40;;;;;;5041681;28;20029;-68
2024/02/21 00:51:51;;;;;;;97.57;64.95;;;18.50;75.30;;;;;;5041095;28;20022;-68
2024/02/21 00:54:17;;;;;;;93.85;63.97;;;18.50;75.40;;;;;;5036827;28;20049;-67
2024/02/21 00:56:43;;;;;;;88.78;60.40;;;18.50;75.30;;;;;;5038235;28;20041;-68
2024/02/21 00:59:08;;;;;;;89.97;60.78;;;18.50;75.20;;;;;;5039769;28;20076;-66
2024/02/21 01:01:34;;;;;;;90.95;61.15;;;18.60;75.20;;;;;;5045073;28;20025;-66
2024/02/21 01:04:00;;;;;;;87.85;61.28;;;18.60;75.40;;;;;;5040937;28;20112;-67
2024/02/21 01:06:25;;;;;;;95.53;63.05;;;18.50;75.50;;;;;;5042061;28;20152;-67
2024/02/21 01:08:51;;;;;;;89.85;59.42;;;18.50;75.50;;;;;;5042024;28;20036;-67
2024/02/21 01:11:17;;;;;;;91.70;61.42;;;18.50;75.50;;;;;;5043218;28;20427;-67
2024/02/21 01:13:43;;;;;;;95.18;62.28;;;18.60;75.60;;;;;;5045573;28;20025;-68
2024/02/21 01:16:08;;;;;;;88.13;59.38;;;18.60;75.70;;;;;;5042583;28;20086;-67
2024/02/21 01:18:36;;;;;;;90.88;61.00;;;18.60;75.70;;;;;;5042349;28;20022;-67
2024/02/21 01:21:02;;;;;;;91.43;59.88;;;18.50;75.80;;;;;;5038817;28;20099;-68
2024/02/21 01:23:28;;;;;;;89.30;59.80;;;18.60;75.90;;;;;;5048473;28;20032;-68
2024/02/21 01:25:55;;;;;;;88.15;58.35;;;18.60;75.80;;;;;;5040650;28;20053;-68
2024/02/21 01:28:20;;;;;;;85.97;57.65;;;18.60;75.90;;;;;;5050740;28;20048;-68
2024/02/21 01:30:46;;;;;;;92.20;60.03;;;18.60;75.80;;;;;;5044485;28;20026;-68
2024/02/21 01:33:12;;;;;;;88.22;59.90;;;18.60;76.00;;;;;;5044685;28;20075;-68
2024/02/21 01:35:37;;;;;;;85.90;56.03;;;18.50;76.00;;;;;;5045135;28;20017;-68
2024/02/21 01:38:04;;;;;;;87.72;58.88;;;18.50;76.00;;;;;;5043041;28;20083;-68
2024/02/21 01:40:29;;;;;;;87.05;59.72;;;18.50;76.30;;;;;;5042567;28;20025;-68
2024/02/21 01:42:55;;;;;;;90.20;61.00;;;18.50;76.30;;;;;;5041567;28;20116;-68
2024/02/21 01:45:21;;;;;;;86.72;59.47;;;18.50;76.30;;;;;;5044799;28;20373;-67
2024/02/21 01:47:49;;;;;;;83.28;58.17;;;18.60;76.20;;;;;;5044939;28;20021;-67
2024/02/21 01:50:15;;;;;;;81.72;55.03;;;18.50;76.30;;;;;;5041308;28;20552;-67
2024/02/21 01:52:41;;;;;;;82.57;57.33;;;18.60;76.20;;;;;;5041264;28;20025;-67
2024/02/21 01:55:09;;;;;;;80.65;54.58;;;18.60;76.30;;;;;;5042616;28;20061;-67
2024/02/21 01:57:35;;;;;;;78.28;53.30;;;18.60;76.20;;;;;;5044791;28;20017;-68
2024/02/21 02:00:01;;;;;;;79.50;54.55;;;18.50;76.20;;;;;;5041809;28;20089;-68
2024/02/21 02:02:27;;;;;;;81.82;55.42;;;18.60;76.30;;;;;;5041015;28;20032;-68
2024/02/21 02:04:52;;;;;;;79.95;56.03;;;18.60;76.30;;;;;;5041512;28;20030;-68
2024/02/21 02:07:18;;;;;;;81.90;55.35;;;18.60;76.50;;;;;;5052753;28;20028;-67
2024/02/21 02:09:44;;;;;;;80.63;55.30;;;18.60;76.60;;;;;;5052740;28;20214;-66
2024/02/21 02:12:09;;;;;;;79.15;54.30;;;18.50;76.50;;;;;;5044287;28;20033;-69
2024/02/21 02:14:35;;;;;;;77.65;53.45;;;18.60;76.40;;;;;;5039473;28;20017;-68
2024/02/21 02:17:01;;;;;;;79.32;53.67;;;18.60;76.30;;;;;;5041408;28;20036;-68
2024/02/21 02:19:26;;;;;;;81.47;54.72;;;18.60;76.40;;;;;;5044332;28;20025;-65
2024/02/21 02:22:00;;;;;;;75.53;52.28;;;18.60;76.40;;;;;;5043943;28;20053;-65
2024/02/21 02:24:26;;;;;;;74.53;50.70;;;18.60;76.50;;;;;;5040979;28;20022;-66
2024/02/21 02:26:52;;;;;;;79.25;53.72;;;18.60;76.60;;;;;;5034016;28;20022;-64
2024/02/21 02:29:17;;;;;;;79.95;52.42;;;18.60;76.60;;;;;;5044090;28;20083;-66
2024/02/21 02:31:43;;;;;;;73.95;49.95;;;18.60;76.50;;;;;;5044085;28;20048;-65
2024/02/21 02:34:09;;;;;;;77.93;52.67;;;18.60;76.50;;;;;;5041308;28;20018;-65
2024/02/21 02:36:36;;;;;;;79.05;52.75;;;18.60;76.50;;;;;;5041862;28;20456;-65
2024/02/21 02:39:02;;;;;;;71.32;50.08;;;18.60;76.50;;;;;;5041151;28;20060;-65
2024/02/21 02:41:27;;;;;;;71.47;48.88;;;18.60;76.40;;;;;;5043780;28;20530;-65
2024/02/21 02:43:53;;;;;;;71.18;50.67;;;18.60;76.70;;;;;;5044924;28;20100;-65
2024/02/21 02:46:18;;;;;;;75.72;49.75;;;18.60;76.60;;;;;;5049311;28;20032;-66
2024/02/21 02:48:44;;;;;;;71.38;48.97;;;18.60;76.60;;;;;;5040334;28;20116;-68
2024/02/21 02:51:10;;;;;;;71.07;49.08;;;18.60;76.60;;;;;;5042093;28;20045;-68
2024/02/21 02:53:36;;;;;;;77.30;51.22;;;18.60;76.60;;;;;;5043907;28;20021;-67
2024/02/21 02:56:01;;;;;;;69.95;49.72;;;18.60;76.60;;;;;;5042043;28;20025;-68
2024/02/21 02:58:28;;;;;;;71.38;48.38;;;18.60;76.80;;;;;;5040214;28;20136;-67
2024/02/21 03:00:53;;;;;;;69.03;48.00;;;18.60;76.60;;;;;;5038787;28;20036;-67
2024/02/21 03:03:19;;;;;;;72.05;47.25;;;18.50;76.80;;;;;;5041606;28;20016;-68
2024/02/21 03:05:46;;;;;;;68.68;47.60;;;18.50;76.90;;;;;;5043678;28;20025;-68
2024/02/21 03:08:15;;;;;;;67.07;46.83;;;18.60;76.80;;;;;;5040514;28;20052;-67
2024/02/21 03:10:41;;;;;;;70.00;46.80;;;18.60;76.80;;;;;;5039695;28;20049;-67
2024/02/21 03:13:06;;;;;;;70.88;48.08;;;18.60;76.80;;;;;;5041325;28;20018;-66
2024/02/21 03:15:32;;;;;;;66.47;45.97;;;18.60;76.90;;;;;;5043441;28;20029;-67
2024/02/21 03:17:58;;;;;;;69.65;46.08;;;18.60;76.80;;;;;;5042108;28;20021;-67
2024/02/21 03:20:23;;;;;;;70.93;47.22;;;18.50;76.90;;;;;;5040674;28;20013;-67
2024/02/21 03:22:49;;;;;;;65.85;44.97;;;18.60;76.80;;;;;;5039401;28;20029;-66
2024/02/21 03:25:15;;;;;;;64.57;44.03;;;18.60;76.80;;;;;;5040099;28;20025;-68
2024/02/21 03:27:40;;;;;;;62.15;42.58;;;18.50;77.00;;;;;;5038148;28;20029;-68
2024/02/21 03:30:06;;;;;;;65.22;45.30;;;18.50;77.00;;;;;;5040801;28;20052;-67
2024/02/21 03:32:32;;;;;;;63.50;44.17;;;18.60;77.00;;;;;;5039396;28;20493;-68
2024/02/21 03:34:57;;;;;;;64.30;44.25;;;18.60;76.50;;;;;;5047792;28;20025;-68
2024/02/21 03:37:23;;;;;;;64.20;44.17;;;18.50;76.40;;;;;;5044307;28;20024;-68
2024/02/21 03:39:49;;;;;;;65.88;44.42;;;18.60;76.60;;;;;;5042791;28;20398;-67
2024/02/21 03:42:14;;;;;;;63.00;43.65;;;18.60;76.80;;;;;;5039543;28;20060;-68
2024/02/21 03:44:40;;;;;;;63.97;44.25;;;18.60;76.70;;;;;;5039408;28;20393;-68
2024/02/21 03:47:05;;;;;;;64.00;44.03;;;18.60;76.70;;;;;;5040510;28;20022;-66
2024/02/21 03:49:31;;;;;;;63.17;43.60;;;18.50;76.90;;;;;;5042732;28;20063;-67
2024/02/21 03:51:57;;;;;;;63.42;43.47;;;18.50;76.90;;;;;;5041543;28;20031;-66
2024/02/21 03:54:22;;;;;;;64.15;43.20;;;18.50;76.80;;;;;;5039236;28;20452;-67
2024/02/21 03:56:48;;;;;;;58.67;42.05;;;18.60;76.80;;;;;;5039382;28;20045;-69
2024/02/21 03:59:14;;;;;;;60.42;41.47;;;18.60;76.50;;;;;;5041464;28;20100;-68
2024/02/21 04:01:40;;;;;;;62.35;42.42;;;18.60;76.50;;;;;;5042327;28;20469;-68
2024/02/21 04:04:06;;;;;;;56.80;40.42;;;18.50;76.40;;;;;;5040735;28;20021;-66
2024/02/21 04:06:32;;;;;;;58.70;40.85;;;18.50;76.40;;;;;;5040788;28;20053;-66
2024/02/21 04:08:57;;;;;;;61.55;41.17;;;18.60;76.10;;;;;;5048093;28;20477;-69
2024/02/21 04:11:23;;;;;;;58.67;40.80;;;18.50;76.40;;;;;;5052732;28;20032;-70
2024/02/21 04:13:50;;;;;;;58.53;39.42;;;18.50;76.30;;;;;;5060537;28;20082;-70
2024/02/21 04:16:16;;;;;;;50.88;36.28;;;18.50;76.40;;;;;;5052531;28;20021;-69
2024/02/21 04:18:42;;;;;;;57.15;38.97;;;18.50;76.30;;;;;;5043603;28;20064;-67
2024/02/21 04:21:09;;;;;;;57.75;37.72;;;18.50;76.40;;;;;;5042398;28;20021;-66
2024/02/21 04:23:34;;;;;;;55.55;38.42;;;18.50;76.50;;;;;;5042311;28;20021;-66
2024/02/21 04:26:00;;;;;;;56.88;37.45;;;18.50;76.80;;;;;;5033747;28;20028;-66
2024/02/21 04:28:25;;;;;;;51.38;36.00;;;18.60;76.80;;;;;;5038630;28;20061;-67
2024/02/21 04:30:51;;;;;;;53.28;37.25;;;18.60;76.60;;;;;;5038322;28;20603;-66
2024/02/21 04:33:17;;;;;;;56.13;37.53;;;18.50;76.40;;;;;;5041549;28;20025;-67
2024/02/21 04:35:42;;;;;;;51.17;35.53;;;18.50;76.40;;;;;;5041344;28;20017;-67
2024/02/21 04:38:08;;;;;;;50.63;35.85;;;18.50;76.40;;;;;;5039556;28;20049;-66
2024/02/21 04:40:33;;;;;;;52.97;36.55;;;18.50;76.30;;;;;;5038419;28;20078;-66
2024/02/21 04:42:59;;;;;;;50.80;35.33;;;18.60;76.40;;;;;;5036174;28;20068;-65
2024/02/21 04:45:25;;;;;;;49.15;34.80;;;18.50;76.40;;;;;;5041829;28;20078;-66
2024/02/21 04:47:50;;;;;;;51.85;36.03;;;18.50;76.60;;;;;;5042147;28;20021;-66
2024/02/21 04:50:16;;;;;;;54.88;36.65;;;18.50;76.90;;;;;;5038417;28;20061;-66
2024/02/21 04:52:42;;;;;;;48.55;34.83;;;18.60;76.80;;;;;;5038487;28;20020;-66
2024/02/21 04:55:08;;;;;;;47.85;34.22;;;18.50;76.70;;;;;;5048123;28;20380;-67
2024/02/21 04:57:34;;;;;;;50.53;34.05;;;18.50;76.90;;;;;;5040762;28;20031;-67
2024/02/21 04:59:59;;;;;;;51.38;36.50;;;18.50;77.20;;;;;;5040540;28;20040;-66
2024/02/21 05:02:26;;;;;;;48.92;34.42;;;18.60;77.10;;;;;;5038193;28;20033;-66
2024/02/21 05:04:52;;;;;;;50.63;34.20;;;18.60;77.20;;;;;;5038366;28;20531;-67
2024/02/21 05:07:19;;;;;;;49.38;33.53;;;18.60;77.00;;;;;;5041342;28;20021;-67
2024/02/21 05:09:45;;;;;;;51.90;34.55;;;18.60;77.00;;;;;;5041905;28;20032;-67
2024/02/21 05:12:11;;;;;;;50.33;33.45;;;18.50;76.90;;;;;;5038589;28;20485;-67
2024/02/21 05:14:37;;;;;;;47.33;32.70;;;18.60;77.00;;;;;;5038294;28;20018;-67
2024/02/21 05:17:03;;;;;;;50.08;33.95;;;18.60;77.00;;;;;;5039597;28;20097;-66
2024/02/21 05:19:29;;;;;;;48.03;33.28;;;18.60;76.90;;;;;;5041852;28;20036;-66
2024/02/21 05:21:54;;;;;;;45.22;30.90;;;18.60;77.00;;;;;;5040788;28;20033;-68
2024/02/21 05:24:20;;;;;;;45.55;32.10;;;18.50;76.90;;;;;;5038133;28;20025;-65
2024/02/21 05:26:46;;;;;;;45.28;31.88;;;18.50;76.90;;;;;;5030992;28;20025;-65
2024/02/21 05:29:11;;;;;;;43.70;30.33;;;18.60;76.70;;;;;;5038790;28;20021;-66
2024/02/21 05:31:58;;;;;;;44.83;31.73;;;18.60;76.60;;;;;;5041283;28;20033;-66
2024/02/21 05:34:25;;;;;;;43.20;29.50;;;18.60;76.40;;;;;;5038197;28;20034;-66
2024/02/21 05:36:51;;;;;;;45.05;32.00;;;18.60;76.50;;;;;;5038033;28;20048;-70
2024/02/21 05:39:17;;;;;;;42.90;30.52;;;18.60;76.50;;;;;;5040497;28;20605;-69
2024/02/21 05:41:43;;;;;;;43.38;30.58;;;18.60;76.50;;;;;;5041181;28;20489;-68
2024/02/21 05:44:09;;;;;;;40.65;29.05;;;18.60;76.50;;;;;;5035949;28;20095;-67
2024/02/21 05:46:35;;;;;;;41.45;28.90;;;18.60;76.60;;;;;;5037102;28;20500;-67
2024/02/21 05:49:00;;;;;;;41.13;28.98;;;18.60;76.50;;;;;;5039230;28;20037;-67
2024/02/21 05:51:26;;;;;;;40.80;29.27;;;18.60;76.50;;;;;;5044850;28;20029;-67
2024/02/21 05:53:52;;;;;;;40.28;27.33;;;18.50;76.70;;;;;;5044161;28;20048;-69
2024/02/21 05:56:18;;;;;;;41.85;27.77;;;18.60;76.50;;;;;;5040891;28;20436;-68
2024/02/21 05:58:44;;;;;;;40.20;28.17;;;18.50;76.80;;;;;;5037302;28;20547;-68
2024/02/21 06:01:10;;;;;;;42.00;28.67;;;18.60;76.80;;;;;;5036132;28;20333;-67
2024/02/21 06:03:36;;;;;;;42.03;29.48;;;18.60;77.10;;;;;;5039424;28;20099;-66
2024/02/21 06:06:03;;;;;;;39.40;27.80;;;18.60;77.20;;;;;;5039738;28;20109;-70
2024/02/21 06:08:28;;;;;;;40.58;28.05;;;18.60;77.20;;;;;;5041249;28;20025;-68
2024/02/21 06:10:54;;;;;;;38.70;26.77;;;18.60;77.00;;;;;;5041142;28;20033;-69
2024/02/21 06:13:29;;;;;;;39.70;27.10;;;18.60;76.80;;;;;;5044807;28;20021;-70
2024/02/21 06:15:54;;;;;;;38.67;26.92;;;18.60;77.10;;;;;;5044051;28;20037;-67
2024/02/21 06:18:20;;;;;;;37.38;27.40;;;18.60;77.10;;;;;;5038663;28;20457;-69
2024/02/21 06:20:47;;;;;;;41.28;27.63;;;18.60;77.20;;;;;;5040889;28;20513;-69
2024/02/21 06:23:19;;;;;;;45.90;28.33;;;18.60;77.20;;;;;;5042938;28;20026;-71
2024/02/21 06:25:44;;;;;;;43.05;28.45;;;18.60;77.30;;;;;;5044414;28;20557;-72
2024/02/21 06:28:10;;;;;;;48.63;28.00;;;18.50;77.30;;;;;;5041804;28;20048;-71
2024/02/21 06:30:36;;;;;;;40.30;26.58;;;18.60;77.30;;;;;;5040532;28;20067;-69
2024/02/21 06:33:02;;;;;;;47.50;28.20;;;18.60;77.30;;;;;;5034618;28;20390;-71
2024/02/21 06:35:28;;;;;;;47.58;27.77;;;18.60;77.90;;;;;;5044063;28;20028;-74
2024/02/21 06:37:54;;;;;;;49.70;27.10;;;18.60;78.40;;;;;;5043602;28;20022;-67
2024/02/21 06:40:23;;;;;;;21.45;9.48;;;18.60;78.70;;;;;;5040507;28;20029;-65
2024/02/21 06:42:49;;;;;;;20.25;7.85;;;18.10;60.60;;;;;;5040605;28;20481;-63
2024/02/21 06:45:15;;;;;;;10.52;5.10;;;17.60;59.60;;;;;;5042673;28;20393;-65
2024/02/21 06:47:41;;;;;;;14.20;5.82;;;17.20;55.90;;;;;;5043979;28;20021;-64
2024/02/21 06:50:08;;;;;;;15.55;5.65;;;16.90;56.50;;;;;;5041793;28;20021;-64
2024/02/21 06:52:34;;;;;;;12.00;5.00;;;16.70;60.40;;;;;;5039277;28;20024;-64
2024/02/21 06:55:00;;;;;;;11.02;4.72;;;16.80;60.90;;;;;;5040822;28;20022;-64
2024/02/21 06:57:25;;;;;;;12.32;5.78;;;16.90;58.10;;;;;;5049427;28;20485;-71
2024/02/21 06:59:51;;;;;;;24.85;11.50;;;17.00;64.20;;;;;;5053829;28;20025;-71
2024/02/21 07:02:16;;;;;;;33.13;15.25;;;17.10;70.00;;;;;;5047985;28;20021;-71
2024/02/21 07:04:43;;;;;;;33.40;15.30;;;17.30;72.10;;;;;;5049693;28;20013;-70
2024/02/21 07:07:09;;;;;;;26.77;14.38;;;17.50;73.10;;;;;;5042164;28;20025;-71
2024/02/21 07:09:34;;;;;;;26.08;11.70;;;17.50;73.20;;;;;;5044876;28;20021;-72
2024/02/21 07:12:00;;;;;;;27.73;12.02;;;17.60;73.20;;;;;;5043584;28;20057;-71
2024/02/21 07:14:28;;;;;;;26.88;13.25;;;17.70;73.30;;;;;;5040143;28;20393;-72
2024/02/21 07:16:54;;;;;;;21.70;12.30;;;17.80;73.40;;;;;;5038663;28;20547;-71
2024/02/21 07:19:20;;;;;;;24.67;12.75;;;17.90;73.50;;;;;;5042928;28;20041;-72
2024/02/21 07:21:46;;;;;;;25.27;11.68;;;17.90;73.50;;;;;;5043272;28;20063;-72
2024/02/21 07:24:12;;;;;;;21.23;10.85;;;18.00;73.40;;;;;;5040501;28;20535;-72
2024/02/21 07:26:40;;;;;;;22.00;11.65;;;18.00;73.50;;;;;;5040017;28;20025;-73
2024/02/21 07:29:06;;;;;;;24.35;12.30;;;18.00;73.60;;;;;;5041044;28;20029;-72
2024/02/21 07:31:38;;;;;;;22.17;11.35;;;18.10;73.60;;;;;;5051175;28;20025;-64
2024/02/21 07:34:03;;;;;;;14.52;6.65;;;18.10;73.50;;;;;;5050959;28;20058;-64
2024/02/21 07:36:32;;;;;;;16.98;6.15;;;17.90;60.80;;;;;;5053047;28;20078;-63
2024/02/21 07:38:57;;;;;;;12.80;4.88;;;17.70;56.30;;;;;;5053014;28;20029;-63
2024/02/21 07:41:23;;;;;;;10.00;3.70;;;17.50;53.60;;;;;;5050977;28;20508;-63
2024/02/21 07:43:48;;;;;;;12.30;3.95;;;17.30;52.30;;;;;;5053052;28;20025;-63
2024/02/21 07:46:14;;;;;;;11.20;4.20;;;17.10;53.70;;;;;;5052412;28;20021;-64
2024/02/21 07:48:40;;;;;;;11.32;4.55;;;17.00;58.50;;;;;;5052663;28;20039;-64
2024/02/21 07:51:05;;;;;;;10.98;4.45;;;17.00;63.40;;;;;;5052355;28;20025;-66
2024/02/21 07:53:31;;;;;;;10.80;4.82;;;17.10;65.20;;;;;;5052424;28;20092;-65
2024/02/21 07:55:57;;;;;;;11.52;4.45;;;17.20;65.70;;;;;;5051890;28;20492;-65
2024/02/21 07:58:22;;;;;;;11.05;4.03;;;17.30;66.20;;;;;;5052162;28;20472;-65
2024/02/21 08:00:48;;;;;;;11.35;3.92;;;17.40;66.60;;;;;;5052026;28;20053;-66
2024/02/21 08:03:15;;;;;;;8.65;3.83;;;17.50;67.00;;;;;;5052049;28;20036;-65
2024/02/21 08:05:41;;;;;;;7.70;3.90;;;17.60;67.50;;;;;;5052257;28;20032;-65
2024/02/21 08:08:08;;;;;;;8.20;3.83;;;17.70;67.80;;;;;;5051979;28;20135;-64
2024/02/21 08:10:33;;;;;;;11.63;3.88;;;17.70;68.00;;;;;;5051807;28;20123;-64
2024/02/21 08:12:59;;;;;;;7.25;3.38;;;17.80;68.20;;;;;;5052032;28;20104;-65
2024/02/21 08:15:29;;;;;;;9.23;3.47;;;17.90;68.30;;;;;;5051663;28;20043;-65
2024/02/21 08:17:59;;;;;;;8.35;3.08;;;17.90;68.30;;;;;;5051822;28;20029;-65
2024/02/21 08:20:25;;;;;;;10.70;3.72;;;18.00;68.40;;;;;;5051671;28;20535;-65
2024/02/21 08:22:50;;;;;;;9.43;3.65;;;18.00;68.50;;;;;;5051614;28;20147;-66
2024/02/21 08:25:16;;;;;;;10.52;3.65;;;18.00;68.40;;;;;;5051801;28;20025;-65
2024/02/21 08:27:41;;;;;;;6.82;2.80;;;18.10;68.50;;;;;;5051771;28;20465;-65
2024/02/21 08:30:07;;;;;;;7.57;3.65;;;18.20;68.60;;;;;;5051558;28;20209;-65
2024/02/21 08:32:35;;;;;;;7.22;3.55;;;18.10;68.60;;;;;;5051585;28;20055;-65
2024/02/21 08:35:01;;;;;;;8.20;3.45;;;18.10;68.60;;;;;;5051787;28;20025;-64
2024/02/21 08:37:29;;;;;;;5.57;3.00;;;18.20;68.60;;;;;;5051578;28;20481;-64
2024/02/21 08:39:55;;;;;;;8.35;3.72;;;18.20;68.70;;;;;;5051403;28;20416;-65
2024/02/21 08:42:20;;;;;;;6.32;2.95;;;18.20;68.70;;;;;;5051375;28;20017;-64
2024/02/21 08:44:46;;;;;;;5.65;2.88;;;18.30;68.80;;;;;;5051186;28;20119;-65
2024/02/21 08:47:12;;;;;;;8.52;3.47;;;18.30;68.80;;;;;;5051637;28;20021;-65
2024/02/21 08:49:38;;;;;;;7.63;3.80;;;18.20;68.80;;;;;;5051484;28;20021;-65
2024/02/21 08:52:05;;;;;;;5.57;2.97;;;18.30;68.90;;;;;;5050973;28;20492;-66
2024/02/21 08:54:31;;;;;;;5.05;2.60;;;18.30;68.90;;;;;;5051088;28;20114;-64
2024/02/21 08:56:56;;;;;;;5.90;2.78;;;18.30;68.90;;;;;;5051327;28;20028;-65
2024/02/21 08:59:22;;;;;;;6.55;3.20;;;18.30;68.90;;;;;;5051272;28;20025;-65
2024/02/21 09:01:47;;;;;;;5.93;3.10;;;18.30;69.00;;;;;;5051034;28;20029;-65
2024/02/21 09:04:13;;;;;;;7.28;3.45;;;18.30;69.00;;;;;;5051417;28;20025;-65
2024/02/21 09:06:41;;;;;;;7.30;3.25;;;18.30;69.10;;;;;;5051206;28;20029;-65
2024/02/21 09:09:08;;;;;;;4.72;2.45;;;18.30;69.10;;;;;;5051278;28;20484;-65
2024/02/21 09:11:34;;;;;;;7.40;2.90;;;18.30;69.10;;;;;;5051032;28;20082;-66
2024/02/21 09:14:00;;;;;;;4.53;2.75;;;18.40;69.10;;;;;;5051129;28;20370;-66
2024/02/21 09:16:25;;;;;;;8.57;3.45;;;18.40;69.20;;;;;;5051097;28;20052;-64
2024/02/21 09:18:52;;;;;;;5.22;2.95;;;18.30;69.20;;;;;;5051368;28;20025;-64
2024/02/21 09:21:18;;;;;;;5.35;2.47;;;18.30;69.20;;;;;;5052661;28;20029;-64
2024/02/21 09:23:45;;;;;;;6.00;2.92;;;18.30;69.20;;;;;;5055282;28;20063;-64
2024/02/21 09:26:13;;;;;;;4.93;2.78;;;18.30;69.30;;;;;;5055037;28;20025;-64
2024/02/21 09:28:39;;;;;;;5.63;2.70;;;18.30;69.30;;;;;;5054961;28;20036;-64
2024/02/21 09:31:05;;;;;;;7.15;3.08;;;18.30;69.40;;;;;;5054711;28;20021;-64
2024/02/21 09:33:30;;;;;;;4.00;2.35;;;18.30;69.40;;;;;;5054911;28;20097;-66
2024/02/21 09:35:56;;;;;;;4.82;2.58;;;18.30;69.50;;;;;;5054844;28;20098;-64
2024/02/21 09:38:22;;;;;;;4.95;2.33;;;18.30;69.40;;;;;;5054716;28;20025;-65
2024/02/21 09:40:51;;;;;;;5.35;2.47;;;18.30;69.50;;;;;;5053444;28;20029;-64
2024/02/21 09:43:18;;;;;;;5.00;2.30;;;18.30;69.50;;;;;;5054980;28;20031;-65
2024/02/21 09:45:47;;;;;;;6.43;2.78;;;18.30;69.50;;;;;;5056222;28;20025;-64
2024/02/21 09:48:19;;;;;;;4.85;2.42;;;18.30;69.60;;;;;;5060691;28;20021;-64
2024/02/21 09:50:47;;;;;;;6.18;2.38;;;18.30;69.60;;;;;;5061558;28;20084;-66
2024/02/21 09:53:13;;;;;;;4.55;2.63;;;18.30;69.60;;;;;;5058095;28;20021;-65
2024/02/21 09:55:41;;;;;;;4.40;2.33;;;18.30;69.60;;;;;;5057135;28;20481;-65
2024/02/21 09:58:07;;;;;;;3.75;2.40;;;18.30;69.70;;;;;;5055358;28;20033;-64
2024/02/21 10:00:33;;;;;;;4.50;2.85;;;18.30;69.70;;;;;;5054236;28;20070;-66
2024/02/21 10:02:59;;;;;;;6.18;2.95;;;18.30;69.70;;;;;;5054419;28;20100;-64
2024/02/21 10:05:25;;;;;;;6.03;2.72;;;18.30;69.70;;;;;;5054210;28;20391;-65
2024/02/21 10:07:51;;;;;;;4.03;2.25;;;18.30;69.70;;;;;;5054488;28;20033;-65
2024/02/21 10:10:21;;;;;;;3.75;2.15;;;18.30;69.80;;;;;;5054141;28;20032;-64
2024/02/21 10:12:57;;;;;;;4.22;2.22;;;18.30;69.80;;;;;;5054274;28;20029;-64
2024/02/21 10:15:24;;;;;;;4.20;2.33;;;18.30;69.80;;;;;;5054392;28;20025;-64
2024/02/21 10:17:58;;;;;;;4.00;2.25;;;18.30;69.80;;;;;;5054829;28;20021;-65
2024/02/21 10:20:24;;;;;;;5.63;2.47;;;18.30;69.90;;;;;;5054269;28;20029;-64
2024/02/21 10:23:02;;;;;;;4.90;2.35;;;18.30;69.90;;;;;;5053999;28;20378;-64
2024/02/21 10:25:27;;;;;;;4.05;2.30;;;18.30;69.90;;;;;;5053996;28;20439;-66
2024/02/21 10:27:53;;;;;;;3.20;2.17;;;18.30;69.90;;;;;;5054037;28;20151;-65
2024/02/21 10:30:20;;;;;;;3.83;2.00;;;18.30;69.90;;;;;;5053727;28;20037;-65
2024/02/21 10:32:51;;;;;;;3.67;2.13;;;18.30;70.00;;;;;;5052566;28;20480;-66
2024/02/21 10:35:28;;;;;;;4.40;2.20;;;18.30;70.00;;;;;;5053526;28;20028;-65
2024/02/21 10:37:55;;;;;;;3.92;2.15;;;18.30;70.00;;;;;;5053751;28;20017;-65
2024/02/21 10:40:27;;;;;;;3.20;2.28;;;18.20;70.00;;;;;;5053750;28;20037;-65
2024/02/21 10:43:00;;;;;;;4.07;2.42;;;18.30;70.00;;;;;;5053669;28;20530;-64
2024/02/21 10:45:35;;;;;;;4.30;2.72;;;18.30;70.10;;;;;;5053419;28;20040;-64
2024/02/21 10:48:24;;;;;;;2.80;1.77;;;18.30;70.10;;;;;;5053567;28;20109;-65
2024/02/21 10:50:59;;;;;;;4.50;2.08;;;18.30;70.10;;;;;;5053200;28;20105;-65
2024/02/21 10:53:28;;;;;;;4.07;2.22;;;18.30;70.10;;;;;;5053405;28;20028;-65
2024/02/21 10:56:21;;;;;;;3.92;2.70;;;18.30;70.10;;;;;;5053245;28;20025;-65
2024/02/21 10:58:48;;;;;;;4.25;2.13;;;18.30;70.10;;;;;;5039786;28;20116;-65
2024/02/21 11:01:15;;;;;;;4.55;2.13;;;18.30;70.00;;;;;;5053799;28;20104;-65
2024/02/21 11:03:43;;;;;;;4.07;1.98;;;18.30;69.90;;;;;;5053393;28;20028;-65
2024/02/21 11:06:11;;;;;;;2.70;1.70;;;18.40;69.90;;;;;;5052220;28;20025;-65
2024/02/21 11:08:36;;;;;;;4.50;2.40;;;18.40;69.90;;;;;;5053301;28;20032;-65
2024/02/21 11:11:04;;;;;;;3.67;1.90;;;18.40;69.80;;;;;;5052910;28;20029;-65
2024/02/21 11:13:35;;;;;;;3.42;2.22;;;18.40;69.80;;;;;;5051445;28;20374;-65
2024/02/21 11:16:11;;;;;;;3.25;1.90;;;18.40;69.70;;;;;;5053072;28;20056;-65
2024/02/21 11:18:37;;;;;;;3.97;2.13;;;18.40;69.70;;;;;;5086071;23;20045;-62
2024/02/21 11:21:07;;;;;;;4.03;2.17;;;18.40;69.70;;;;;;5070706;28;20116;-63
2024/02/21 11:23:32;;;;;;;3.40;1.73;;;18.50;69.60;;;;;;5072093;28;20171;-63
2024/02/21 11:26:28;;;;;;;3.88;2.15;;;18.40;69.60;;;;;;5072082;28;20074;-63
2024/02/21 11:28:59;;;;;;;4.18;1.95;;;18.40;69.60;;;;;;5069859;28;20415;-63
2024/02/21 11:31:27;;;;;;;3.28;1.92;;;18.40;69.60;;;;;;5071674;28;20036;-64
2024/02/21 11:33:53;;;;;;;3.33;1.75;;;18.40;69.50;;;;;;5072107;28;20031;-63
2024/02/21 11:36:26;;;;;;;3.97;1.80;;;18.50;69.50;;;;;;5071906;28;20108;-63
2024/02/21 11:38:53;;;;;;;2.50;1.95;;;18.40;69.50;;;;;;5071834;28;20184;-63
2024/02/21 11:41:20;;;;;;;3.72;2.10;;;18.40;69.50;;;;;;5071370;28;20037;-64
2024/02/21 11:43:46;;;;;;;3.17;1.58;;;18.40;69.50;;;;;;5069835;28;20069;-63
2024/02/21 11:46:14;;;;;;;3.65;1.60;;;18.50;69.50;;;;;;5070369;28;20028;-63
2024/02/21 11:48:41;;;;;;;3.80;2.03;;;18.50;69.50;;;;;;5071700;28;20021;-64
2024/02/21 11:51:06;;;;;;;2.15;1.70;;;18.40;69.40;;;;;;5071234;28;20031;-64
2024/02/21 11:53:33;;;;;;;3.28;1.98;;;18.50;69.50;;;;;;5071567;28;20021;-65
2024/02/21 11:55:58;;;;;;;2.45;2.13;;;18.40;69.50;;;;;;5071183;28;20031;-64
2024/02/21 11:58:25;;;;;;;2.47;1.67;;;18.50;69.60;;;;;;5071380;28;20016;-64
2024/02/21 12:00:51;;;;;;;4.20;2.00;;;18.40;69.50;;;;;;5071122;28;20074;-64
2024/02/21 12:03:17;;;;;;;2.65;1.75;;;18.40;69.50;;;;;;5071136;28;20476;-63
2024/02/21 12:05:43;;;;;;;3.38;1.77;;;18.40;69.50;;;;;;5071538;28;20028;-64
2024/02/21 12:08:08;;;;;;;1.85;1.40;;;18.40;69.50;;;;;;5071783;28;20086;-64
2024/02/21 12:10:35;;;;;;;3.08;1.80;;;18.40;69.50;;;;;;5067361;28;20037;-63
2024/02/21 12:13:08;;;;;;;3.08;1.92;;;18.40;69.60;;;;;;5072083;28;20107;-64
2024/02/21 12:15:34;;;;;;;2.03;1.60;;;18.40;69.60;;;;;;5072044;28;20024;-63
2024/02/21 12:18:00;;;;;;;3.55;1.63;;;18.40;69.60;;;;;;5071671;28;20496;-63
2024/02/21 12:20:26;;;;;;;2.95;1.90;;;18.40;69.60;;;;;;5071612;28;20496;-63
2024/02/21 12:22:53;;;;;;;3.08;1.77;;;18.40;69.60;;;;;;5071567;28;20074;-64
2024/02/21 12:25:25;;;;;;;2.33;1.75;;;18.40;69.60;;;;;;5070369;28;20016;-64
2024/02/21 12:27:51;;;;;;;3.03;2.28;;;18.40;69.60;;;;;;5070696;28;20048;-64
2024/02/21 12:30:17;;;;;;;4.85;2.13;;;18.30;69.60;;;;;;5075461;28;20025;-62